sensor_id;sensor_type;location;lat;lon;timestamp;P1;durP1;ratioP1;P2;durP2;ratioP2
38865;SDS011;62686;48.984;8.394;2022-09-21T00:01:09;14.43;;;6.63;;
38865;SDS011;62686;48.984;8.394;2022-09-21T00:03:41;8.37;;;6.13;;
38865;SDS011;62686;48.984;8.394;2022-09-21T00:06:10;11.00;;;7.40;;
38865;SDS011;62686;48.984;8.394;2022-09-21T00:08:40;11.20;;;6.70;;
38865;SDS011;62686;48.984;8.394;2022-09-21T00:11:10;11.40;;;7.07;;
38865;SDS011;62686;48.984;8.394;2022-09-21T00:13:39;12.00;;;6.80;;
38865;SDS011;62686;48.984;8.394;2022-09-21T00:16:08;13.53;;;6.90;;
38865;SDS011;62686;48.984;8.394;2022-09-21T00:18:38;10.90;;;6.43;;
38865;SDS011;62686;48.984;8.394;2022-09-21T00:21:06;8.47;;;6.30;;
38865;SDS011;62686;48.984;8.394;2022-09-21T00:23:36;10.97;;;6.43;;
38865;SDS011;62686;48.984;8.394;2022-09-21T00:26:06;9.67;;;6.57;;
38865;SDS011;62686;48.984;8.394;2022-09-21T00:28:35;10.73;;;6.43;;
38865;SDS011;62686;48.984;8.394;2022-09-21T00:31:04;9.83;;;6.27;;
38865;SDS011;62686;48.984;8.394;2022-09-21T00:33:33;10.93;;;7.20;;
38865;SDS011;62686;48.984;8.394;2022-09-21T00:36:03;8.70;;;6.00;;
38865;SDS011;62686;48.984;8.394;2022-09-21T00:38:33;10.87;;;6.07;;
38865;SDS011;62686;48.984;8.394;2022-09-21T00:41:02;13.37;;;7.07;;
38865;SDS011;62686;48.984;8.394;2022-09-21T00:43:32;9.73;;;6.87;;
38865;SDS011;62686;48.984;8.394;2022-09-21T00:46:02;9.03;;;6.60;;
38865;SDS011;62686;48.984;8.394;2022-09-21T00:48:34;7.80;;;6.40;;
38865;SDS011;62686;48.984;8.394;2022-09-21T00:51:04;10.50;;;6.53;;
38865;SDS011;62686;48.984;8.394;2022-09-21T00:53:34;8.63;;;6.27;;
38865;SDS011;62686;48.984;8.394;2022-09-21T00:56:04;10.83;;;7.07;;
38865;SDS011;62686;48.984;8.394;2022-09-21T00:58:34;10.10;;;6.23;;
38865;SDS011;62686;48.984;8.394;2022-09-21T01:01:07;12.47;;;6.43;;
38865;SDS011;62686;48.984;8.394;2022-09-21T01:03:36;8.50;;;6.00;;
38865;SDS011;62686;48.984;8.394;2022-09-21T01:06:10;10.37;;;6.10;;
38865;SDS011;62686;48.984;8.394;2022-09-21T01:08:41;10.93;;;6.43;;
38865;SDS011;62686;48.984;8.394;2022-09-21T01:11:15;9.07;;;6.33;;
38865;SDS011;62686;48.984;8.394;2022-09-21T01:14:04;11.00;;;6.50;;
38865;SDS011;62686;48.984;8.394;2022-09-21T01:16:51;8.60;;;6.60;;
38865;SDS011;62686;48.984;8.394;2022-09-21T01:19:36;8.33;;;6.30;;
38865;SDS011;62686;48.984;8.394;2022-09-21T01:22:22;11.40;;;6.40;;
38865;SDS011;62686;48.984;8.394;2022-09-21T01:25:01;9.40;;;6.97;;
38865;SDS011;62686;48.984;8.394;2022-09-21T01:30:33;8.83;;;6.20;;
38865;SDS011;62686;48.984;8.394;2022-09-21T01:33:05;16.43;;;7.37;;
38865;SDS011;62686;48.984;8.394;2022-09-21T01:35:39;9.07;;;6.73;;
38865;SDS011;62686;48.984;8.394;2022-09-21T01:38:11;10.33;;;7.30;;
38865;SDS011;62686;48.984;8.394;2022-09-21T01:40:42;11.97;;;7.43;;
38865;SDS011;62686;48.984;8.394;2022-09-21T01:43:17;13.00;;;7.67;;
38865;SDS011;62686;48.984;8.394;2022-09-21T01:45:52;13.80;;;7.70;;
38865;SDS011;62686;48.984;8.394;2022-09-21T01:48:23;10.57;;;7.13;;
38865;SDS011;62686;48.984;8.394;2022-09-21T01:50:52;10.47;;;7.17;;
38865;SDS011;62686;48.984;8.394;2022-09-21T01:53:23;14.17;;;8.03;;
38865;SDS011;62686;48.984;8.394;2022-09-21T01:55:58;12.77;;;6.90;;
38865;SDS011;62686;48.984;8.394;2022-09-21T01:58:33;11.33;;;7.53;;
38865;SDS011;62686;48.984;8.394;2022-09-21T02:01:07;10.17;;;7.00;;
38865;SDS011;62686;48.984;8.394;2022-09-21T02:03:41;15.23;;;6.50;;
38865;SDS011;62686;48.984;8.394;2022-09-21T02:06:11;11.53;;;6.83;;
38865;SDS011;62686;48.984;8.394;2022-09-21T02:08:41;11.50;;;7.47;;
38865;SDS011;62686;48.984;8.394;2022-09-21T02:11:09;12.70;;;7.40;;
38865;SDS011;62686;48.984;8.394;2022-09-21T02:13:40;11.43;;;7.20;;
38865;SDS011;62686;48.984;8.394;2022-09-21T02:16:27;9.90;;;7.30;;
38865;SDS011;62686;48.984;8.394;2022-09-21T02:19:07;13.37;;;7.50;;
38865;SDS011;62686;48.984;8.394;2022-09-21T02:21:41;12.50;;;8.00;;
38865;SDS011;62686;48.984;8.394;2022-09-21T02:24:20;13.57;;;8.33;;
38865;SDS011;62686;48.984;8.394;2022-09-21T02:26:58;15.07;;;8.77;;
38865;SDS011;62686;48.984;8.394;2022-09-21T02:29:33;11.63;;;8.43;;
38865;SDS011;62686;48.984;8.394;2022-09-21T02:32:11;14.30;;;8.77;;
38865;SDS011;62686;48.984;8.394;2022-09-21T02:34:49;14.67;;;8.43;;
38865;SDS011;62686;48.984;8.394;2022-09-21T02:37:25;14.77;;;8.93;;
38865;SDS011;62686;48.984;8.394;2022-09-21T02:40:00;15.57;;;8.53;;
38865;SDS011;62686;48.984;8.394;2022-09-21T02:42:36;13.40;;;9.10;;
38865;SDS011;62686;48.984;8.394;2022-09-21T02:45:08;13.17;;;8.77;;
38865;SDS011;62686;48.984;8.394;2022-09-21T02:47:43;15.60;;;8.53;;
38865;SDS011;62686;48.984;8.394;2022-09-21T02:50:16;16.27;;;8.50;;
38865;SDS011;62686;48.984;8.394;2022-09-21T02:52:49;15.63;;;9.00;;
38865;SDS011;62686;48.984;8.394;2022-09-21T02:55:19;15.83;;;9.43;;
38865;SDS011;62686;48.984;8.394;2022-09-21T02:57:48;16.23;;;9.43;;
38865;SDS011;62686;48.984;8.394;2022-09-21T03:00:17;14.07;;;8.40;;
38865;SDS011;62686;48.984;8.394;2022-09-21T03:02:46;13.50;;;8.73;;
38865;SDS011;62686;48.984;8.394;2022-09-21T03:05:17;15.17;;;8.53;;
38865;SDS011;62686;48.984;8.394;2022-09-21T03:07:45;14.97;;;8.90;;
38865;SDS011;62686;48.984;8.394;2022-09-21T03:10:13;15.83;;;9.57;;
38865;SDS011;62686;48.984;8.394;2022-09-21T03:12:41;14.70;;;8.70;;
38865;SDS011;62686;48.984;8.394;2022-09-21T03:15:10;13.87;;;8.20;;
38865;SDS011;62686;48.984;8.394;2022-09-21T03:17:38;17.97;;;9.10;;
38865;SDS011;62686;48.984;8.394;2022-09-21T03:20:07;12.47;;;8.70;;
38865;SDS011;62686;48.984;8.394;2022-09-21T03:22:36;13.17;;;8.63;;
38865;SDS011;62686;48.984;8.394;2022-09-21T03:25:04;13.13;;;8.70;;
38865;SDS011;62686;48.984;8.394;2022-09-21T03:27:34;13.60;;;8.43;;
38865;SDS011;62686;48.984;8.394;2022-09-21T03:30:02;13.53;;;8.50;;
38865;SDS011;62686;48.984;8.394;2022-09-21T03:32:31;14.13;;;8.07;;
38865;SDS011;62686;48.984;8.394;2022-09-21T03:34:59;13.03;;;8.10;;
38865;SDS011;62686;48.984;8.394;2022-09-21T03:37:29;14.83;;;8.17;;
38865;SDS011;62686;48.984;8.394;2022-09-21T03:39:57;15.70;;;8.70;;
38865;SDS011;62686;48.984;8.394;2022-09-21T03:42:25;12.70;;;8.80;;
38865;SDS011;62686;48.984;8.394;2022-09-21T03:44:53;13.77;;;8.97;;
38865;SDS011;62686;48.984;8.394;2022-09-21T03:47:21;13.50;;;8.87;;
38865;SDS011;62686;48.984;8.394;2022-09-21T03:49:49;13.17;;;9.63;;
38865;SDS011;62686;48.984;8.394;2022-09-21T03:52:18;13.63;;;8.73;;
38865;SDS011;62686;48.984;8.394;2022-09-21T03:54:48;17.67;;;9.67;;
38865;SDS011;62686;48.984;8.394;2022-09-21T03:57:16;13.97;;;8.70;;
38865;SDS011;62686;48.984;8.394;2022-09-21T03:59:44;17.53;;;10.30;;
38865;SDS011;62686;48.984;8.394;2022-09-21T04:02:13;16.53;;;9.80;;
38865;SDS011;62686;48.984;8.394;2022-09-21T04:04:42;15.27;;;9.57;;
38865;SDS011;62686;48.984;8.394;2022-09-21T04:07:10;14.27;;;9.73;;
38865;SDS011;62686;48.984;8.394;2022-09-21T04:09:39;14.87;;;9.43;;
38865;SDS011;62686;48.984;8.394;2022-09-21T04:12:09;16.43;;;9.07;;
38865;SDS011;62686;48.984;8.394;2022-09-21T04:14:38;14.33;;;9.20;;
38865;SDS011;62686;48.984;8.394;2022-09-21T04:17:06;19.37;;;9.53;;
38865;SDS011;62686;48.984;8.394;2022-09-21T04:19:34;15.77;;;8.93;;
38865;SDS011;62686;48.984;8.394;2022-09-21T04:22:02;14.43;;;8.97;;
38865;SDS011;62686;48.984;8.394;2022-09-21T04:24:31;13.30;;;9.27;;
38865;SDS011;62686;48.984;8.394;2022-09-21T04:26:59;15.10;;;9.90;;
38865;SDS011;62686;48.984;8.394;2022-09-21T04:29:29;17.53;;;9.43;;
38865;SDS011;62686;48.984;8.394;2022-09-21T04:31:57;13.73;;;9.40;;
38865;SDS011;62686;48.984;8.394;2022-09-21T04:34:25;14.43;;;9.17;;
38865;SDS011;62686;48.984;8.394;2022-09-21T04:36:53;12.80;;;8.77;;
38865;SDS011;62686;48.984;8.394;2022-09-21T04:39:21;16.00;;;10.03;;
38865;SDS011;62686;48.984;8.394;2022-09-21T04:41:50;14.70;;;9.80;;
38865;SDS011;62686;48.984;8.394;2022-09-21T04:44:18;14.77;;;9.90;;
38865;SDS011;62686;48.984;8.394;2022-09-21T04:46:48;15.30;;;9.90;;
38865;SDS011;62686;48.984;8.394;2022-09-21T04:49:16;16.37;;;10.70;;
38865;SDS011;62686;48.984;8.394;2022-09-21T04:51:44;18.63;;;10.87;;
38865;SDS011;62686;48.984;8.394;2022-09-21T04:54:12;15.57;;;10.53;;
38865;SDS011;62686;48.984;8.394;2022-09-21T04:56:41;15.70;;;10.57;;
38865;SDS011;62686;48.984;8.394;2022-09-21T04:59:09;17.67;;;10.33;;
38865;SDS011;62686;48.984;8.394;2022-09-21T05:01:37;15.60;;;9.93;;
38865;SDS011;62686;48.984;8.394;2022-09-21T05:04:06;14.93;;;10.00;;
38865;SDS011;62686;48.984;8.394;2022-09-21T05:06:35;17.13;;;10.10;;
38865;SDS011;62686;48.984;8.394;2022-09-21T05:09:03;16.27;;;10.43;;
38865;SDS011;62686;48.984;8.394;2022-09-21T05:11:48;18.30;;;11.53;;
38865;SDS011;62686;48.984;8.394;2022-09-21T05:14:17;23.03;;;11.33;;
38865;SDS011;62686;48.984;8.394;2022-09-21T05:16:45;19.00;;;11.20;;
38865;SDS011;62686;48.984;8.394;2022-09-21T05:19:16;20.77;;;10.77;;
38865;SDS011;62686;48.984;8.394;2022-09-21T05:21:44;17.93;;;10.53;;
38865;SDS011;62686;48.984;8.394;2022-09-21T05:24:12;20.30;;;11.13;;
38865;SDS011;62686;48.984;8.394;2022-09-21T05:26:40;15.63;;;10.87;;
38865;SDS011;62686;48.984;8.394;2022-09-21T05:29:09;14.90;;;10.80;;
38865;SDS011;62686;48.984;8.394;2022-09-21T05:31:39;18.57;;;11.60;;
38865;SDS011;62686;48.984;8.394;2022-09-21T05:34:18;19.63;;;10.93;;
38865;SDS011;62686;48.984;8.394;2022-09-21T05:37:02;18.50;;;10.90;;
38865;SDS011;62686;48.984;8.394;2022-09-21T05:39:35;19.00;;;11.50;;
38865;SDS011;62686;48.984;8.394;2022-09-21T05:42:04;18.07;;;11.00;;
38865;SDS011;62686;48.984;8.394;2022-09-21T05:44:33;21.00;;;11.47;;
38865;SDS011;62686;48.984;8.394;2022-09-21T05:47:03;23.90;;;11.87;;
38865;SDS011;62686;48.984;8.394;2022-09-21T05:49:46;19.03;;;12.13;;
38865;SDS011;62686;48.984;8.394;2022-09-21T05:52:23;21.10;;;11.23;;
38865;SDS011;62686;48.984;8.394;2022-09-21T05:54:59;22.50;;;11.87;;
38865;SDS011;62686;48.984;8.394;2022-09-21T05:57:35;23.47;;;11.83;;
38865;SDS011;62686;48.984;8.394;2022-09-21T06:00:11;21.33;;;12.00;;
38865;SDS011;62686;48.984;8.394;2022-09-21T06:02:47;18.30;;;12.43;;
38865;SDS011;62686;48.984;8.394;2022-09-21T06:05:25;16.73;;;11.53;;
38865;SDS011;62686;48.984;8.394;2022-09-21T06:07:54;23.73;;;11.80;;
38865;SDS011;62686;48.984;8.394;2022-09-21T06:10:22;22.10;;;12.83;;
38865;SDS011;62686;48.984;8.394;2022-09-21T06:12:50;24.43;;;12.20;;
38865;SDS011;62686;48.984;8.394;2022-09-21T06:15:18;17.47;;;11.67;;
38865;SDS011;62686;48.984;8.394;2022-09-21T06:17:46;26.00;;;12.57;;
38865;SDS011;62686;48.984;8.394;2022-09-21T06:20:15;21.80;;;12.53;;
38865;SDS011;62686;48.984;8.394;2022-09-21T06:22:44;21.00;;;12.30;;
38865;SDS011;62686;48.984;8.394;2022-09-21T06:25:12;19.50;;;12.17;;
38865;SDS011;62686;48.984;8.394;2022-09-21T06:27:41;21.10;;;12.17;;
38865;SDS011;62686;48.984;8.394;2022-09-21T06:30:09;21.33;;;11.23;;
38865;SDS011;62686;48.984;8.394;2022-09-21T06:32:38;19.77;;;12.10;;
38865;SDS011;62686;48.984;8.394;2022-09-21T06:35:06;22.20;;;12.37;;
38865;SDS011;62686;48.984;8.394;2022-09-21T06:37:35;18.20;;;12.87;;
38865;SDS011;62686;48.984;8.394;2022-09-21T06:40:07;18.13;;;12.73;;
38865;SDS011;62686;48.984;8.394;2022-09-21T06:42:36;13.10;;;9.50;;
38865;SDS011;62686;48.984;8.394;2022-09-21T06:45:04;8.60;;;6.73;;
38865;SDS011;62686;48.984;8.394;2022-09-21T06:47:33;7.80;;;5.00;;
38865;SDS011;62686;48.984;8.394;2022-09-21T06:50:01;10.77;;;4.33;;
38865;SDS011;62686;48.984;8.394;2022-09-21T06:52:30;7.50;;;4.07;;
38865;SDS011;62686;48.984;8.394;2022-09-21T06:54:58;8.97;;;3.13;;
38865;SDS011;62686;48.984;8.394;2022-09-21T06:57:28;4.27;;;2.90;;
38865;SDS011;62686;48.984;8.394;2022-09-21T06:59:58;4.40;;;2.63;;
38865;SDS011;62686;48.984;8.394;2022-09-21T07:02:27;3.87;;;2.67;;
38865;SDS011;62686;48.984;8.394;2022-09-21T07:04:55;8.93;;;2.70;;
38865;SDS011;62686;48.984;8.394;2022-09-21T07:07:23;7.95;;;2.72;;
38865;SDS011;62686;48.984;8.394;2022-09-21T07:09:52;7.82;;;2.70;;
38865;SDS011;62686;48.984;8.394;2022-09-21T07:12:41;7.50;;;2.70;;
38865;SDS011;62686;48.984;8.394;2022-09-21T07:15:10;4.70;;;2.53;;
38865;SDS011;62686;48.984;8.394;2022-09-21T07:17:38;7.60;;;2.55;;
38865;SDS011;62686;48.984;8.394;2022-09-21T07:20:08;4.60;;;2.33;;
38865;SDS011;62686;48.984;8.394;2022-09-21T07:22:37;7.30;;;2.60;;
38865;SDS011;62686;48.984;8.394;2022-09-21T07:25:05;3.35;;;2.47;;
38865;SDS011;62686;48.984;8.394;2022-09-21T07:27:33;3.33;;;2.55;;
38865;SDS011;62686;48.984;8.394;2022-09-21T07:30:03;4.70;;;2.45;;
38865;SDS011;62686;48.984;8.394;2022-09-21T07:32:32;4.85;;;2.55;;
38865;SDS011;62686;48.984;8.394;2022-09-21T07:35:01;5.15;;;2.63;;
38865;SDS011;62686;48.984;8.394;2022-09-21T07:37:30;7.43;;;2.72;;
38865;SDS011;62686;48.984;8.394;2022-09-21T07:39:58;7.40;;;2.53;;
38865;SDS011;62686;48.984;8.394;2022-09-21T07:42:29;4.82;;;2.60;;
38865;SDS011;62686;48.984;8.394;2022-09-21T07:44:57;7.70;;;3.00;;
38865;SDS011;62686;48.984;8.394;2022-09-21T07:47:30;3.90;;;2.80;;
38865;SDS011;62686;48.984;8.394;2022-09-21T07:49:58;5.05;;;2.85;;
38865;SDS011;62686;48.984;8.394;2022-09-21T07:52:26;6.22;;;3.03;;
38865;SDS011;62686;48.984;8.394;2022-09-21T07:54:55;5.20;;;3.10;;
38865;SDS011;62686;48.984;8.394;2022-09-21T07:57:23;5.30;;;2.92;;
38865;SDS011;62686;48.984;8.394;2022-09-21T08:00:08;6.53;;;2.65;;
38865;SDS011;62686;48.984;8.394;2022-09-21T08:02:38;5.80;;;3.00;;
38865;SDS011;62686;48.984;8.394;2022-09-21T08:05:09;3.80;;;2.83;;
38865;SDS011;62686;48.984;8.394;2022-09-21T08:07:37;6.55;;;3.08;;
38865;SDS011;62686;48.984;8.394;2022-09-21T08:10:05;5.45;;;3.17;;
38865;SDS011;62686;48.984;8.394;2022-09-21T08:12:34;4.03;;;2.72;;
38865;SDS011;62686;48.984;8.394;2022-09-21T08:15:03;7.30;;;2.97;;
38865;SDS011;62686;48.984;8.394;2022-09-21T08:17:31;7.88;;;3.30;;
38865;SDS011;62686;48.984;8.394;2022-09-21T08:20:01;5.57;;;3.20;;
38865;SDS011;62686;48.984;8.394;2022-09-21T08:22:29;5.30;;;3.40;;
38865;SDS011;62686;48.984;8.394;2022-09-21T08:24:57;8.73;;;3.85;;
38865;SDS011;62686;48.984;8.394;2022-09-21T08:27:26;5.35;;;3.30;;
38865;SDS011;62686;48.984;8.394;2022-09-21T08:29:55;5.30;;;3.17;;
38865;SDS011;62686;48.984;8.394;2022-09-21T08:32:23;7.45;;;3.40;;
38865;SDS011;62686;48.984;8.394;2022-09-21T08:35:07;6.53;;;3.40;;
38865;SDS011;62686;48.984;8.394;2022-09-21T08:37:35;6.38;;;3.53;;
38865;SDS011;62686;48.984;8.394;2022-09-21T08:40:04;5.97;;;4.00;;
38865;SDS011;62686;48.984;8.394;2022-09-21T08:42:41;5.85;;;3.70;;
38865;SDS011;62686;48.984;8.394;2022-09-21T08:45:16;5.93;;;3.40;;
38865;SDS011;62686;48.984;8.394;2022-09-21T08:47:47;5.95;;;4.07;;
38865;SDS011;62686;48.984;8.394;2022-09-21T08:53:12;6.13;;;3.85;;
38865;SDS011;62686;48.984;8.394;2022-09-21T08:55:44;6.82;;;3.60;;
38865;SDS011;62686;48.984;8.394;2022-09-21T08:58:16;7.32;;;3.28;;
38865;SDS011;62686;48.984;8.394;2022-09-21T09:00:51;3.92;;;2.65;;
38865;SDS011;62686;48.984;8.394;2022-09-21T09:03:43;4.60;;;3.08;;
38865;SDS011;62686;48.984;8.394;2022-09-21T09:06:30;5.15;;;3.13;;
38865;SDS011;62686;48.984;8.394;2022-09-21T09:09:18;6.93;;;3.63;;
38865;SDS011;62686;48.984;8.394;2022-09-21T09:12:08;5.22;;;3.30;;
38865;SDS011;62686;48.984;8.394;2022-09-21T09:14:49;5.78;;;3.40;;
38865;SDS011;62686;48.984;8.394;2022-09-21T09:17:42;6.07;;;3.30;;
38865;SDS011;62686;48.984;8.394;2022-09-21T09:20:17;5.60;;;3.05;;
38865;SDS011;62686;48.984;8.394;2022-09-21T09:22:52;5.50;;;3.38;;
38865;SDS011;62686;48.984;8.394;2022-09-21T09:25:31;5.43;;;2.70;;
38865;SDS011;62686;48.984;8.394;2022-09-21T09:28:09;5.45;;;2.85;;
38865;SDS011;62686;48.984;8.394;2022-09-21T09:30:48;8.13;;;3.50;;
38865;SDS011;62686;48.984;8.394;2022-09-21T09:33:25;6.43;;;3.08;;
38865;SDS011;62686;48.984;8.394;2022-09-21T09:35:57;4.90;;;2.75;;
38865;SDS011;62686;48.984;8.394;2022-09-21T09:38:31;5.15;;;2.67;;
38865;SDS011;62686;48.984;8.394;2022-09-21T09:41:11;6.20;;;3.05;;
38865;SDS011;62686;48.984;8.394;2022-09-21T09:43:54;8.00;;;2.97;;
38865;SDS011;62686;48.984;8.394;2022-09-21T09:46:31;6.75;;;2.97;;
38865;SDS011;62686;48.984;8.394;2022-09-21T09:49:11;6.68;;;2.95;;
38865;SDS011;62686;48.984;8.394;2022-09-21T09:51:49;7.55;;;2.88;;
38865;SDS011;62686;48.984;8.394;2022-09-21T09:54:20;4.93;;;2.55;;
38865;SDS011;62686;48.984;8.394;2022-09-21T09:56:50;5.00;;;2.30;;
38865;SDS011;62686;48.984;8.394;2022-09-21T09:59:22;3.22;;;1.95;;
38865;SDS011;62686;48.984;8.394;2022-09-21T10:02:00;8.23;;;2.05;;
38865;SDS011;62686;48.984;8.394;2022-09-21T10:04:30;3.75;;;1.75;;
38865;SDS011;62686;48.984;8.394;2022-09-21T10:06:59;3.47;;;1.75;;
38865;SDS011;62686;48.984;8.394;2022-09-21T10:09:30;3.28;;;1.27;;
38865;SDS011;62686;48.984;8.394;2022-09-21T10:11:59;4.28;;;1.52;;
38865;SDS011;62686;48.984;8.394;2022-09-21T10:14:31;2.90;;;1.58;;
38865;SDS011;62686;48.984;8.394;2022-09-21T10:17:03;2.40;;;1.50;;
38865;SDS011;62686;48.984;8.394;2022-09-21T10:19:33;2.90;;;1.60;;
38865;SDS011;62686;48.984;8.394;2022-09-21T10:22:03;2.25;;;1.40;;
38865;SDS011;62686;48.984;8.394;2022-09-21T10:24:34;3.70;;;1.83;;
38865;SDS011;62686;48.984;8.394;2022-09-21T10:27:06;4.97;;;1.52;;
38865;SDS011;62686;48.984;8.394;2022-09-21T10:29:41;4.38;;;1.35;;
38865;SDS011;62686;48.984;8.394;2022-09-21T10:32:17;2.33;;;1.20;;
38865;SDS011;62686;48.984;8.394;2022-09-21T10:35:10;3.63;;;1.48;;
38865;SDS011;62686;48.984;8.394;2022-09-21T10:40:48;2.90;;;1.40;;
38865;SDS011;62686;48.984;8.394;2022-09-21T10:43:21;1.88;;;1.27;;
38865;SDS011;62686;48.984;8.394;2022-09-21T10:45:52;3.25;;;1.73;;
38865;SDS011;62686;48.984;8.394;2022-09-21T10:48:23;3.33;;;1.67;;
38865;SDS011;62686;48.984;8.394;2022-09-21T10:50:53;2.20;;;1.40;;
38865;SDS011;62686;48.984;8.394;2022-09-21T10:53:24;4.97;;;1.50;;
38865;SDS011;62686;48.984;8.394;2022-09-21T10:55:57;4.78;;;1.60;;
38865;SDS011;62686;48.984;8.394;2022-09-21T11:01:41;3.90;;;1.60;;
38865;SDS011;62686;48.984;8.394;2022-09-21T11:04:11;4.20;;;1.77;;
38865;SDS011;62686;48.984;8.394;2022-09-21T11:06:45;3.35;;;1.27;;
38865;SDS011;62686;48.984;8.394;2022-09-21T11:09:17;2.10;;;1.20;;
38865;SDS011;62686;48.984;8.394;2022-09-21T11:11:54;2.55;;;1.25;;
38865;SDS011;62686;48.984;8.394;2022-09-21T11:14:32;1.58;;;1.10;;
38865;SDS011;62686;48.984;8.394;2022-09-21T11:17:08;2.97;;;1.00;;
38865;SDS011;62686;48.984;8.394;2022-09-21T11:19:43;2.30;;;1.30;;
38865;SDS011;62686;48.984;8.394;2022-09-21T11:22:18;1.60;;;0.93;;
38865;SDS011;62686;48.984;8.394;2022-09-21T11:25:00;1.95;;;1.00;;
38865;SDS011;62686;48.984;8.394;2022-09-21T11:27:36;1.67;;;1.02;;
38865;SDS011;62686;48.984;8.394;2022-09-21T11:30:09;3.45;;;1.27;;
38865;SDS011;62686;48.984;8.394;2022-09-21T11:32:52;2.00;;;1.30;;
38865;SDS011;62686;48.984;8.394;2022-09-21T11:35:37;1.75;;;1.13;;
38865;SDS011;62686;48.984;8.394;2022-09-21T11:38:17;2.90;;;1.30;;
38865;SDS011;62686;48.984;8.394;2022-09-21T11:41:00;3.42;;;1.17;;
38865;SDS011;62686;48.984;8.394;2022-09-21T11:43:43;1.70;;;1.02;;
38865;SDS011;62686;48.984;8.394;2022-09-21T11:46:27;3.17;;;1.40;;
38865;SDS011;62686;48.984;8.394;2022-09-21T11:49:04;1.58;;;1.10;;
38865;SDS011;62686;48.984;8.394;2022-09-21T11:51:54;5.00;;;1.13;;
38865;SDS011;62686;48.984;8.394;2022-09-21T11:54:40;1.80;;;1.10;;
38865;SDS011;62686;48.984;8.394;2022-09-21T11:57:28;2.95;;;1.10;;
38865;SDS011;62686;48.984;8.394;2022-09-21T12:00:04;1.98;;;1.00;;
38865;SDS011;62686;48.984;8.394;2022-09-21T12:02:51;3.00;;;1.10;;
38865;SDS011;62686;48.984;8.394;2022-09-21T12:05:44;4.45;;;1.10;;
38865;SDS011;62686;48.984;8.394;2022-09-21T12:08:31;1.92;;;0.90;;
38865;SDS011;62686;48.984;8.394;2022-09-21T12:11:18;3.05;;;1.02;;
38865;SDS011;62686;48.984;8.394;2022-09-21T12:13:57;2.05;;;0.98;;
38865;SDS011;62686;48.984;8.394;2022-09-21T12:16:37;2.05;;;0.90;;
38865;SDS011;62686;48.984;8.394;2022-09-21T12:19:11;2.90;;;1.17;;
38865;SDS011;62686;48.984;8.394;2022-09-21T12:21:47;4.65;;;1.00;;
38865;SDS011;62686;48.984;8.394;2022-09-21T12:24:19;3.67;;;0.90;;
38865;SDS011;62686;48.984;8.394;2022-09-21T12:26:52;3.75;;;0.82;;
38865;SDS011;62686;48.984;8.394;2022-09-21T12:29:24;2.60;;;0.90;;
38865;SDS011;62686;48.984;8.394;2022-09-21T12:32:00;3.08;;;0.88;;
38865;SDS011;62686;48.984;8.394;2022-09-21T12:34:33;1.98;;;0.85;;
38865;SDS011;62686;48.984;8.394;2022-09-21T12:37:08;2.80;;;0.90;;
38865;SDS011;62686;48.984;8.394;2022-09-21T12:39:42;2.10;;;0.82;;
38865;SDS011;62686;48.984;8.394;2022-09-21T12:42:20;1.27;;;0.70;;
38865;SDS011;62686;48.984;8.394;2022-09-21T12:44:55;2.47;;;1.20;;
38865;SDS011;62686;48.984;8.394;2022-09-21T12:47:34;5.32;;;0.88;;
38865;SDS011;62686;48.984;8.394;2022-09-21T12:50:18;2.78;;;0.98;;
38865;SDS011;62686;48.984;8.394;2022-09-21T12:52:49;1.55;;;0.80;;
38865;SDS011;62686;48.984;8.394;2022-09-21T12:55:21;1.60;;;0.77;;
38865;SDS011;62686;48.984;8.394;2022-09-21T12:57:59;2.78;;;0.88;;
38865;SDS011;62686;48.984;8.394;2022-09-21T13:00:41;2.28;;;0.85;;
38865;SDS011;62686;48.984;8.394;2022-09-21T13:03:18;3.20;;;1.02;;
38865;SDS011;62686;48.984;8.394;2022-09-21T13:05:58;2.17;;;0.90;;
38865;SDS011;62686;48.984;8.394;2022-09-21T13:08:39;1.85;;;0.90;;
38865;SDS011;62686;48.984;8.394;2022-09-21T13:11:12;1.75;;;0.85;;
38865;SDS011;62686;48.984;8.394;2022-09-21T13:14:03;1.67;;;0.85;;
38865;SDS011;62686;48.984;8.394;2022-09-21T13:16:32;1.95;;;0.80;;
38865;SDS011;62686;48.984;8.394;2022-09-21T13:19:14;1.52;;;0.80;;
38865;SDS011;62686;48.984;8.394;2022-09-21T13:22:10;2.38;;;0.70;;
38865;SDS011;62686;48.984;8.394;2022-09-21T13:25:00;2.50;;;0.70;;
38865;SDS011;62686;48.984;8.394;2022-09-21T13:30:33;1.23;;;0.90;;
38865;SDS011;62686;48.984;8.394;2022-09-21T13:33:06;1.40;;;1.00;;
38865;SDS011;62686;48.984;8.394;2022-09-21T13:39:03;2.13;;;0.80;;
38865;SDS011;62686;48.984;8.394;2022-09-21T13:41:42;1.75;;;0.88;;
38865;SDS011;62686;48.984;8.394;2022-09-21T13:44:39;1.83;;;1.00;;
38865;SDS011;62686;48.984;8.394;2022-09-21T13:47:08;1.35;;;1.00;;
38865;SDS011;62686;48.984;8.394;2022-09-21T13:49:47;2.30;;;1.00;;
38865;SDS011;62686;48.984;8.394;2022-09-21T13:52:28;2.55;;;1.30;;
38865;SDS011;62686;48.984;8.394;2022-09-21T13:55:03;1.67;;;1.02;;
38865;SDS011;62686;48.984;8.394;2022-09-21T13:57:43;1.70;;;0.85;;
38865;SDS011;62686;48.984;8.394;2022-09-21T14:00:27;2.50;;;1.15;;
38865;SDS011;62686;48.984;8.394;2022-09-21T14:03:00;1.92;;;0.82;;
38865;SDS011;62686;48.984;8.394;2022-09-21T14:05:32;1.65;;;0.93;;
38865;SDS011;62686;48.984;8.394;2022-09-21T14:08:19;2.75;;;0.88;;
38865;SDS011;62686;48.984;8.394;2022-09-21T14:10:52;2.05;;;0.90;;
38865;SDS011;62686;48.984;8.394;2022-09-21T14:13:27;1.75;;;0.70;;
38865;SDS011;62686;48.984;8.394;2022-09-21T14:18:53;1.88;;;0.73;;
38865;SDS011;62686;48.984;8.394;2022-09-21T14:21:22;2.72;;;1.00;;
38865;SDS011;62686;48.984;8.394;2022-09-21T14:24:18;1.48;;;1.00;;
38865;SDS011;62686;48.984;8.394;2022-09-21T14:26:50;2.35;;;1.00;;
38865;SDS011;62686;48.984;8.394;2022-09-21T14:29:23;1.98;;;0.70;;
38865;SDS011;62686;48.984;8.394;2022-09-21T14:31:56;1.52;;;0.90;;
38865;SDS011;62686;48.984;8.394;2022-09-21T14:34:29;1.63;;;0.90;;
38865;SDS011;62686;48.984;8.394;2022-09-21T14:37:02;1.33;;;1.00;;
38865;SDS011;62686;48.984;8.394;2022-09-21T14:39:36;2.58;;;0.82;;
38865;SDS011;62686;48.984;8.394;2022-09-21T14:42:08;1.98;;;0.90;;
38865;SDS011;62686;48.984;8.394;2022-09-21T14:44:42;1.75;;;0.80;;
38865;SDS011;62686;48.984;8.394;2022-09-21T14:50:16;1.30;;;0.68;;
38865;SDS011;62686;48.984;8.394;2022-09-21T14:52:58;0.93;;;0.60;;
38865;SDS011;62686;48.984;8.394;2022-09-21T14:55:43;4.80;;;0.80;;
38865;SDS011;62686;48.984;8.394;2022-09-21T14:58:33;1.15;;;0.88;;
38865;SDS011;62686;48.984;8.394;2022-09-21T15:01:25;2.22;;;0.70;;
38865;SDS011;62686;48.984;8.394;2022-09-21T15:04:15;1.30;;;0.70;;
38865;SDS011;62686;48.984;8.394;2022-09-21T15:07:02;0.63;;;0.52;;
38865;SDS011;62686;48.984;8.394;2022-09-21T15:13:21;2.85;;;0.55;;
38865;SDS011;62686;48.984;8.394;2022-09-21T15:16:02;3.47;;;0.77;;
38865;SDS011;62686;48.984;8.394;2022-09-21T15:18:44;1.35;;;0.68;;
38865;SDS011;62686;48.984;8.394;2022-09-21T15:21:20;0.93;;;0.70;;
38865;SDS011;62686;48.984;8.394;2022-09-21T15:23:51;1.73;;;0.90;;
38865;SDS011;62686;48.984;8.394;2022-09-21T15:26:21;1.27;;;0.77;;
38865;SDS011;62686;48.984;8.394;2022-09-21T15:28:54;1.83;;;0.80;;
38865;SDS011;62686;48.984;8.394;2022-09-21T15:31:34;1.30;;;0.63;;
38865;SDS011;62686;48.984;8.394;2022-09-21T15:34:05;2.28;;;0.90;;
38865;SDS011;62686;48.984;8.394;2022-09-21T15:36:35;2.78;;;0.80;;
38865;SDS011;62686;48.984;8.394;2022-09-21T15:39:05;0.90;;;0.75;;
38865;SDS011;62686;48.984;8.394;2022-09-21T15:41:38;2.50;;;0.80;;
38865;SDS011;62686;48.984;8.394;2022-09-21T15:44:14;1.20;;;0.77;;
38865;SDS011;62686;48.984;8.394;2022-09-21T15:46:44;0.85;;;0.73;;